Time;durP1;ratioP1;P1;durP2;ratioP2;P2;SDS_P1;SDS_P2;PMS_P1;PMS_P2;Temp;Humidity;BMP_temperature;BMP_pressure;BME280_temperature;BME280_humidity;BME280_pressure;Samples;Min_cycle;Max_cycle;Signal;HPM_P1;HPM_P2
2021/11/19 00:00:02;;;;;;;24.20;16.43;;;;;;;7.22;74.13;99290.68;2088360;85;21016;-79
2021/11/19 00:03:03;;;;;;;27.20;14.67;;;;;;;7.23;74.41;99278.58;2088280;85;20960;-79
2021/11/19 00:06:03;;;;;;;25.10;14.70;;;;;;;7.24;74.32;99294.63;2088301;85;20944;-80
2021/11/19 00:09:04;;;;;;;28.80;14.87;;;;;;;7.22;74.48;99282.89;2088749;84;20968;-78
2021/11/19 00:12:04;;;;;;;26.10;14.60;;;;;;;7.22;74.48;99276.81;2088323;85;21320;-79
2021/11/19 00:15:05;;;;;;;21.77;14.93;;;;;;;7.20;74.50;99279.78;2088201;85;21003;-78
2021/11/19 00:18:06;;;;;;;22.77;14.93;;;;;;;7.19;74.69;99276.30;2088100;85;20991;-78
2021/11/19 00:21:06;;;;;;;31.37;15.43;;;;;;;7.20;74.65;99272.88;2087971;85;20971;-79
2021/11/19 00:24:07;;;;;;;22.73;14.23;;;;;;;7.17;74.91;99279.69;2087988;85;21028;-79
2021/11/19 00:27:08;;;;;;;28.97;15.13;;;;;;;7.15;74.96;99280.94;2088088;85;21055;-80
2021/11/19 00:30:09;;;;;;;24.90;14.80;;;;;;;7.14;74.68;99276.57;2088117;85;20937;-79
2021/11/19 00:33:09;;;;;;;22.37;13.87;;;;;;;7.13;74.65;99276.11;2088347;85;21368;-80
2021/11/19 00:36:10;;;;;;;21.60;13.83;;;;;;;7.14;74.87;99282.18;2088035;85;21051;-79
2021/11/19 00:39:10;;;;;;;22.63;12.80;;;;;;;7.14;74.77;99276.57;2088018;85;21011;-79
2021/11/19 00:42:11;;;;;;;19.87;13.10;;;;;;;7.16;74.50;99289.19;2088004;85;21340;-79
2021/11/19 00:45:11;;;;;;;23.70;13.47;;;;;;;7.15;74.26;99274.86;2087972;85;20953;-77
2021/11/19 00:48:12;;;;;;;25.97;13.80;;;;;;;7.15;74.51;99270.55;2088197;85;21012;-77
2021/11/19 00:51:12;;;;;;;21.97;13.53;;;;;;;7.16;74.42;99270.13;2087660;85;20990;-77
2021/11/19 00:54:13;;;;;;;23.73;13.77;;;;;;;7.18;74.47;99282.74;2087821;85;20944;-76
2021/11/19 00:57:13;;;;;;;23.20;13.70;;;;;;;7.19;74.08;99271.11;2087601;85;20988;-77
2021/11/19 01:00:14;;;;;;;22.27;12.90;;;;;;;7.22;74.13;99269.03;2128332;83;21020;-77
2021/11/19 01:03:14;;;;;;;26.77;14.53;;;;;;;7.24;73.69;99273.86;2133234;83;21364;-77
2021/11/19 01:06:15;;;;;;;25.20;12.77;;;;;;;7.24;73.95;99268.24;2133348;83;21322;-76
2021/11/19 01:09:15;;;;;;;27.53;15.73;;;;;;;7.23;74.02;99269.49;2133470;83;20949;-76
2021/11/19 01:12:16;;;;;;;23.83;13.97;;;;;;;7.20;74.35;99259.01;2133214;83;21008;-77
2021/11/19 01:15:16;;;;;;;19.40;12.57;;;;;;;7.18;74.58;99258.96;2133233;83;20996;-76
2021/11/19 01:18:17;;;;;;;22.57;13.23;;;;;;;7.15;74.82;99256.69;2133374;83;20988;-77
2021/11/19 01:21:17;;;;;;;26.20;14.37;;;;;;;7.13;74.94;99257.05;2133234;83;21415;-78
2021/11/19 01:24:18;;;;;;;24.57;14.53;;;;;;;7.09;75.45;99250.88;2133981;83;20996;-79
2021/11/19 01:27:18;;;;;;;22.03;14.30;;;;;;;7.05;75.85;99255.52;2133746;83;21044;-79
2021/11/19 01:30:19;;;;;;;24.87;13.13;;;;;;;7.03;76.05;99245.50;2133863;83;20987;-78
2021/11/19 01:33:20;;;;;;;26.00;14.70;;;;;;;6.97;76.56;99243.59;2133697;83;20987;-78
2021/11/19 01:36:20;;;;;;;23.50;14.10;;;;;;;6.95;76.94;99240.47;2133936;83;21031;-78
2021/11/19 01:39:21;;;;;;;24.37;15.27;;;;;;;6.91;77.59;99243.77;2133668;83;20980;-78
2021/11/19 01:42:21;;;;;;;25.40;14.27;;;;;;;6.86;77.68;99238.43;2133819;83;20973;-79
2021/11/19 01:45:22;;;;;;;23.33;13.53;;;;;;;6.84;78.25;99227.12;2133753;83;20978;-78
2021/11/19 01:48:22;;;;;;;23.07;14.90;;;;;;;6.80;79.00;99210.10;2133760;83;21374;-78
2021/11/19 01:51:23;;;;;;;22.03;14.10;;;;;;;6.77;78.86;99219.08;2133664;83;20953;-78
2021/11/19 01:54:24;;;;;;;22.60;14.23;;;;;;;6.74;79.53;99209.48;2133800;83;21420;-79
2021/11/19 01:57:24;;;;;;;23.97;13.20;;;;;;;6.74;79.53;99209.48;2133711;83;21376;-78
2021/11/19 02:00:24;;;;;;;23.57;14.87;;;;;;;6.74;79.70;99195.22;2112730;83;21359;-79
2021/11/19 02:03:25;;;;;;;27.83;16.20;;;;;;;6.74;79.31;99197.81;2110037;84;20948;-78
2021/11/19 02:06:25;;;;;;;24.47;14.03;;;;;;;6.75;79.49;99198.28;2110102;84;20979;-79
2021/11/19 02:09:26;;;;;;;19.93;13.77;;;;;;;6.74;80.02;99182.25;2109985;84;20964;-78
2021/11/19 02:12:27;;;;;;;23.07;15.70;;;;;;;6.70;80.80;99181.68;2109988;84;20987;-78
2021/11/19 02:15:27;;;;;;;19.23;13.90;;;;;;;6.66;81.19;99187.60;2109878;84;21358;-78
2021/11/19 02:18:28;;;;;;;26.20;15.87;;;;;;;6.60;81.96;99185.69;2109964;84;20987;-78
2021/11/19 02:21:28;;;;;;;24.13;16.03;;;;;;;6.54;82.59;99172.94;2109926;84;20996;-77
2021/11/19 02:24:29;;;;;;;19.67;14.17;;;;;;;6.51;83.23;99165.05;2109747;84;20971;-77
2021/11/19 02:27:30;;;;;;;22.97;15.30;;;;;;;6.47;83.98;99169.67;2109088;84;21410;-78
2021/11/19 02:30:33;;;;;;;26.03;16.00;;;;;;;6.44;83.25;99170.45;2109800;84;20979;-78
2021/11/19 02:33:32;;;;;;;22.53;15.07;;;;;;;6.39;84.27;99163.82;2109085;83;21423;-79
2021/11/19 02:36:33;;;;;;;23.40;14.17;;;;;;;6.34;85.20;99156.30;2109716;84;21010;-78
2021/11/19 02:39:33;;;;;;;23.13;14.57;;;;;;;6.30;85.38;99152.27;2109635;84;21015;-79
2021/11/19 02:42:35;;;;;;;21.83;16.27;;;;;;;6.28;85.85;99162.99;2109891;84;20935;-78
2021/11/19 02:45:36;;;;;;;26.33;16.83;;;;;;;6.25;86.83;99156.41;2110112;84;21014;-78
2021/11/19 02:48:36;;;;;;;20.63;15.10;;;;;;;6.22;86.87;99157.19;2109847;84;21393;-80
2021/11/19 02:51:37;;;;;;;19.23;14.30;;;;;;;6.21;86.74;99148.95;2110357;84;20972;-78
2021/11/19 02:54:37;;;;;;;20.30;13.47;;;;;;;6.21;87.12;99146.77;2110116;84;20991;-79
2021/11/19 02:57:38;;;;;;;22.93;16.50;;;;;;;6.18;87.17;99141.48;2110058;84;21027;-79
2021/11/19 03:00:38;;;;;;;20.33;15.07;;;;;;;6.19;87.10;99146.72;2090718;83;20988;-79
2021/11/19 03:03:39;;;;;;;16.53;13.00;;;;;;;6.19;87.54;99149.31;2088315;85;21012;-79
2021/11/19 03:06:39;;;;;;;23.83;16.17;;;;;;;6.20;87.49;99148.48;2088231;85;21000;-79
2021/11/19 03:09:40;;;;;;;21.67;15.83;;;;;;;6.19;87.36;99144.12;2088399;85;20961;-79
2021/11/19 03:12:40;;;;;;;18.47;15.10;;;;;;;6.18;88.16;99147.96;2087874;85;21396;-79
2021/11/19 03:15:43;;;;;;;23.93;15.93;;;;;;;6.16;88.25;99149.20;2087655;85;20980;-77
2021/11/19 03:18:43;;;;;;;22.93;15.43;;;;;;;6.15;89.12;99149.16;2088120;85;21008;-79
2021/11/19 03:21:43;;;;;;;15.97;12.70;;;;;;;6.18;88.44;99144.95;2088552;85;20929;-77
2021/11/19 03:24:59;;;;;;;19.40;15.37;;;;;;;6.21;88.49;99142.88;2088233;85;21319;-79
2021/11/19 03:28:00;;;;;;;19.87;15.37;;;;;;;6.21;88.02;99148.95;2088104;85;20996;-78
2021/11/19 03:31:00;;;;;;;20.47;15.20;;;;;;;6.22;88.26;99144.64;2088030;85;20968;-79
2021/11/19 03:34:01;;;;;;;21.20;14.87;;;;;;;6.20;89.13;99147.19;2088175;85;20973;-80
2021/11/19 03:37:01;;;;;;;19.43;15.87;;;;;;;6.21;88.56;99142.88;2088130;85;20965;-79
2021/11/19 03:40:01;;;;;;;13.37;11.87;;;;;;;6.20;88.78;99146.30;2087980;85;21000;-79
2021/11/19 03:43:03;;;;;;;17.00;12.73;;;;;;;6.18;89.69;99139.77;2088428;85;21235;-79
2021/11/19 03:46:03;;;;;;;20.13;15.30;;;;;;;6.16;89.95;99141.84;2088086;85;21424;-79
2021/11/19 03:52:06;;;;;;;14.40;11.60;;;;;;;6.14;90.24;99136.61;2075852;84;21025;-79
2021/11/19 03:55:07;;;;;;;16.73;13.87;;;;;;;6.14;90.33;99128.83;2087905;85;21015;-80
2021/11/19 03:58:07;;;;;;;16.70;12.23;;;;;;;6.14;90.03;99130.13;2087530;85;21099;-78
2021/11/19 04:01:08;;;;;;;16.33;11.47;;;;;;;6.13;90.39;99119.30;2130673;83;21505;-78
2021/11/19 04:04:08;;;;;;;13.50;11.53;;;;;;;6.12;90.63;99121.84;2133425;83;20995;-79
2021/11/19 04:07:09;;;;;;;16.33;10.90;;;;;;;6.11;91.14;99122.66;2133769;83;20956;-79
2021/11/19 04:10:09;;;;;;;12.73;11.27;;;;;;;6.12;90.62;99111.05;2133738;83;20980;-79
2021/11/19 04:13:10;;;;;;;12.93;11.57;;;;;;;6.13;90.56;99121.89;2134010;83;21328;-79
2021/11/19 04:16:10;;;;;;;14.90;11.27;;;;;;;6.14;91.10;99109.39;2133705;83;20992;-79
2021/11/19 04:19:11;;;;;;;11.47;9.07;;;;;;;6.12;92.08;99101.98;2133941;83;20953;-79
2021/11/19 04:22:11;;;;;;;17.27;9.90;;;;;;;6.12;91.60;99104.98;2133194;83;20921;-79
2021/11/19 04:25:12;;;;;;;10.70;9.13;;;;;;;6.13;92.30;99098.98;2133732;83;20981;-80
2021/11/19 04:28:12;;;;;;;11.57;9.63;;;;;;;6.14;91.52;99096.44;2133160;83;21043;-77
2021/11/19 04:31:13;;;;;;;13.13;10.63;;;;;;;6.16;91.37;99097.78;2132665;83;20964;-78
2021/11/19 04:34:13;;;;;;;11.07;9.87;;;;;;;6.18;91.39;99101.30;2133627;83;21342;-79
2021/11/19 04:37:17;;;;;;;9.50;8.53;;;;;;;6.19;91.25;99097.47;2133519;83;20964;-79
2021/11/19 04:40:17;;;;;;;11.37;10.07;;;;;;;6.22;91.30;99105.76;2133345;83;21027;-79
2021/11/19 04:43:18;;;;;;;7.97;7.13;;;;;;;6.21;91.70;99110.06;2133345;83;21293;-79
2021/11/19 04:46:18;;;;;;;9.80;8.80;;;;;;;6.22;91.74;99097.57;2133449;83;20956;-79
2021/11/19 04:49:19;;;;;;;8.47;7.67;;;;;;;6.24;91.58;99104.98;2132916;83;20960;-79
2021/11/19 04:52:19;;;;;;;9.53;8.53;;;;;;;6.26;91.33;99109.80;2132478;83;20928;-79
2021/11/19 04:55:20;;;;;;;11.47;9.30;;;;;;;6.27;91.76;99115.45;2132377;83;21028;-79
2021/11/19 04:58:20;;;;;;;10.13;8.70;;;;;;;6.28;91.91;99108.14;2132029;83;21027;-79
2021/11/19 05:01:21;;;;;;;10.03;7.63;;;;;;;6.27;91.75;99110.27;2131913;82;20996;-79
2021/11/19 05:04:21;;;;;;;8.30;7.50;;;;;;;6.27;91.92;99096.42;2132350;83;21403;-80
2021/11/19 05:07:22;;;;;;;11.07;7.83;;;;;;;6.26;91.79;99102.44;2133022;83;21375;-79
2021/11/19 05:10:22;;;;;;;11.23;8.53;;;;;;;6.26;92.33;99112.39;2133457;83;20980;-79
2021/11/19 05:13:23;;;;;;;10.90;8.53;;;;;;;6.26;92.14;99112.81;2133095;83;20968;-80
2021/11/19 05:16:23;;;;;;;14.73;8.93;;;;;;;6.26;93.08;99105.91;2132924;83;21415;-79
2021/11/19 05:19:24;;;;;;;8.70;6.50;;;;;;;6.27;92.75;99102.48;2132600;83;21650;-78
2021/11/19 05:22:24;;;;;;;10.27;8.77;;;;;;;6.26;92.68;99108.50;2132620;83;21000;-79
2021/11/19 05:25:25;;;;;;;9.93;9.00;;;;;;;6.26;92.51;99104.61;2132286;83;20984;-79
2021/11/19 05:28:25;;;;;;;8.87;7.70;;;;;;;6.28;92.41;99113.33;2131454;83;21008;-79
2021/11/19 05:31:26;;;;;;;7.77;6.97;;;;;;;6.29;93.41;99116.37;2131067;83;21000;-79
2021/11/19 05:34:26;;;;;;;8.50;7.70;;;;;;;6.28;93.81;99110.73;2130866;83;20981;-78
2021/11/19 05:37:27;;;;;;;8.20;7.40;;;;;;;6.28;94.25;99117.21;2131680;83;20988;-79
2021/11/19 05:40:27;;;;;;;10.57;9.47;;;;;;;6.28;94.32;99116.33;2130753;83;20988;-79
2021/11/19 05:43:28;;;;;;;7.57;6.87;;;;;;;6.28;93.69;99122.39;2130015;83;21383;-79
2021/11/19 05:46:28;;;;;;;8.73;7.77;;;;;;;6.31;93.63;99123.80;2130548;83;20944;-79
2021/11/19 05:49:29;;;;;;;8.47;7.67;;;;;;;6.33;93.27;99107.88;2131909;83;20992;-81
2021/11/19 05:52:29;;;;;;;9.67;7.70;;;;;;;6.36;93.81;99130.02;2132898;83;20913;-83
2021/11/19 05:55:30;;;;;;;8.37;6.70;;;;;;;6.39;93.67;99137.89;2133185;83;21376;-83
2021/11/19 05:58:31;;;;;;;8.70;7.80;;;;;;;6.41;93.16;99135.34;2133144;83;21024;-82
2021/11/19 06:01:32;;;;;;;6.20;5.60;;;;;;;6.45;93.56;99138.92;2132263;83;21044;-83
2021/11/19 06:04:32;;;;;;;9.73;8.53;;;;;;;6.47;93.84;99145.04;2132067;83;20936;-83
2021/11/19 06:07:33;;;;;;;11.00;9.90;;;;;;;6.48;93.95;99129.95;2132703;83;20960;-83
2021/11/19 06:10:40;;;;;;;7.90;6.93;;;;;;;6.50;93.34;99126.98;2132920;83;20992;-81
2021/11/19 06:13:41;;;;;;;7.50;5.87;;;;;;;6.52;93.61;99139.17;2130945;83;20940;-83
2021/11/19 06:16:48;;;;;;;8.47;6.37;;;;;;;6.55;93.87;99130.19;2133284;83;21011;-81
2021/11/19 06:19:48;;;;;;;7.37;5.93;;;;;;;6.58;93.93;99143.67;2133342;83;20956;-83
2021/11/19 06:22:49;;;;;;;6.80;5.90;;;;;;;6.59;93.42;99138.53;2133336;83;21422;-83
2021/11/19 06:25:49;;;;;;;7.63;6.33;;;;;;;6.61;93.63;99144.66;2132616;83;20972;-82
2021/11/19 06:28:49;;;;;;;12.97;9.53;;;;;;;6.62;93.41;99141.64;2132472;83;21047;-82
2021/11/19 06:31:50;;;;;;;9.17;7.83;;;;;;;6.64;93.43;99141.28;2132948;83;20996;-82
2021/11/19 06:34:51;;;;;;;8.70;6.03;;;;;;;6.66;94.00;99137.02;2132766;83;20959;-83
2021/11/19 06:37:51;;;;;;;9.53;7.73;;;;;;;6.67;93.63;99142.67;2133282;83;21035;-82
2021/11/19 06:40:52;;;;;;;15.30;12.43;;;;;;;6.68;93.94;99138.83;2133141;83;21011;-82
2021/11/19 06:43:52;;;;;;;8.77;7.00;;;;;;;6.72;93.85;99138.51;2133020;83;21007;-82
2021/11/19 06:46:53;;;;;;;9.93;7.90;;;;;;;6.74;93.71;99134.25;2132263;83;20952;-83
2021/11/19 06:49:53;;;;;;;13.93;8.00;;;;;;;6.76;93.94;99145.97;2133119;83;20976;-82
2021/11/19 06:52:54;;;;;;;9.70;8.50;;;;;;;6.79;93.40;99149.96;2132736;83;20972;-83
2021/11/19 06:55:54;;;;;;;11.67;8.73;;;;;;;6.82;93.66;99162.61;2132185;83;21490;-81
2021/11/19 06:58:55;;;;;;;29.00;19.10;;;;;;;6.85;93.88;99153.63;2130864;83;20987;-84
2021/11/19 07:01:55;;;;;;;13.50;10.27;;;;;;;6.86;94.14;99169.66;2089631;83;21075;-83
2021/11/19 07:04:56;;;;;;;10.00;8.00;;;;;;;6.89;93.43;99153.31;2086439;85;20983;-83
2021/11/19 07:07:56;;;;;;;9.60;7.70;;;;;;;6.90;94.39;99161.14;2086529;85;21011;-82
2021/11/19 07:10:57;;;;;;;7.33;5.50;;;;;;;6.93;93.98;99156.46;2086997;85;20995;-83
2021/11/19 07:13:57;;;;;;;5.47;4.67;;;;;;;6.94;93.90;99147.46;2086759;85;20949;-84
2021/11/19 07:16:58;;;;;;;5.30;4.40;;;;;;;6.97;94.24;99161.83;2086991;85;20983;-83
2021/11/19 07:19:58;;;;;;;9.10;5.70;;;;;;;6.99;94.94;99153.67;2086705;85;20976;-83
2021/11/19 07:22:59;;;;;;;13.03;8.30;;;;;;;7.01;94.79;99149.83;2086826;85;20996;-79
2021/11/19 07:25:59;;;;;;;9.63;5.87;;;;;;;7.01;94.41;99156.31;2086312;85;20956;-79
2021/11/19 07:29:00;;;;;;;7.70;5.50;;;;;;;7.03;94.29;99143.84;2086082;85;21751;-80
2021/11/19 07:32:02;;;;;;;7.97;5.67;;;;;;;7.07;94.34;99147.84;2086414;85;21016;-81
2021/11/19 07:35:03;;;;;;;6.13;5.20;;;;;;;7.12;94.48;99148.86;2086143;85;20960;-82
2021/11/19 07:38:03;;;;;;;24.43;12.00;;;;;;;7.14;94.33;99147.19;2086735;85;20984;-83
2021/11/19 07:41:04;;;;;;;24.70;14.20;;;;;;;7.16;94.51;99140.33;2087686;85;20956;-83
2021/11/19 07:44:04;;;;;;;14.37;7.50;;;;;;;7.21;94.17;99151.73;2087995;85;20996;-83
2021/11/19 07:47:05;;;;;;;10.80;6.80;;;;;;;7.24;94.54;99155.30;2087323;85;20976;-83
2021/11/19 07:50:05;;;;;;;9.60;6.77;;;;;;;7.27;94.64;99159.70;2087357;85;20953;-82
2021/11/19 07:53:06;;;;;;;12.57;7.20;;;;;;;7.31;94.75;99168.05;2086995;84;20963;-82
2021/11/19 07:56:07;;;;;;;6.93;5.20;;;;;;;7.36;94.36;99176.85;2086949;85;21360;-83
2021/11/19 07:59:07;;;;;;;11.30;8.00;;;;;;;7.38;94.55;99179.08;2087256;85;21470;-86
2021/11/19 08:02:08;;;;;;;11.40;6.20;;;;;;;7.40;94.81;99172.21;2088002;84;21076;-82
2021/11/19 08:05:08;;;;;;;8.73;5.27;;;;;;;7.42;94.80;99182.22;2087650;85;21675;-82
2021/11/19 08:08:09;;;;;;;6.53;4.90;;;;;;;7.43;95.26;99176.61;2086927;85;20952;-81
2021/11/19 08:11:09;;;;;;;8.10;5.40;;;;;;;7.43;95.43;99178.80;2087895;85;20968;-83
2021/11/19 08:14:10;;;;;;;7.17;5.97;;;;;;;7.44;95.62;99175.78;2087552;85;21004;-82
2021/11/19 08:17:10;;;;;;;8.83;5.97;;;;;;;7.44;95.23;99187.47;2086939;85;21008;-82
2021/11/19 08:20:11;;;;;;;7.20;5.47;;;;;;;7.44;95.64;99180.55;2088188;85;21011;-84
2021/11/19 08:23:11;;;;;;;7.10;5.23;;;;;;;7.46;95.53;99179.30;2087878;85;20964;-81
2021/11/19 08:26:12;;;;;;;9.03;7.20;;;;;;;7.49;95.48;99166.41;2087659;85;20971;-81
2021/11/19 08:29:12;;;;;;;7.70;6.60;;;;;;;7.54;95.14;99164.41;2087580;85;21431;-82
2021/11/19 08:32:13;;;;;;;6.73;5.50;;;;;;;7.63;95.36;99158.17;2087938;85;21410;-83
2021/11/19 08:35:14;;;;;;;7.63;6.20;;;;;;;7.75;95.03;99164.55;2087325;85;20986;-83
2021/11/19 08:38:14;;;;;;;11.00;8.03;;;;;;;7.81;94.77;99177.33;2086971;85;20949;-81
2021/11/19 08:41:15;;;;;;;8.10;6.00;;;;;;;7.86;94.72;99173.55;2086863;85;21019;-83
2021/11/19 08:44:15;;;;;;;7.80;7.00;;;;;;;7.89;94.48;99169.74;2086980;85;21404;-81
2021/11/19 08:47:16;;;;;;;14.33;10.83;;;;;;;7.93;94.36;99168.98;2087759;84;20980;-83
2021/11/19 08:50:16;;;;;;;14.87;9.00;;;;;;;7.96;94.22;99182.06;2087018;85;20969;-82
2021/11/19 08:53:16;;;;;;;11.37;7.47;;;;;;;7.98;94.09;99189.07;2087375;84;20959;-81
2021/11/19 08:56:17;;;;;;;8.00;6.10;;;;;;;7.99;94.10;99188.23;2087382;85;21023;-81
2021/11/19 08:59:17;;;;;;;5.70;5.10;;;;;;;8.01;94.19;99188.27;2086869;85;21033;-81
2021/11/19 09:02:18;;;;;;;9.60;7.30;;;;;;;8.06;93.76;99194.48;2106025;84;20979;-81
2021/11/19 09:05:19;;;;;;;6.87;6.10;;;;;;;8.09;93.80;99189.36;2109432;84;21303;-82
2021/11/19 09:08:19;;;;;;;7.10;6.07;;;;;;;8.16;93.82;99194.31;2109020;84;21010;-82
2021/11/19 09:11:20;;;;;;;11.80;7.77;;;;;;;8.20;93.52;99189.64;2108092;84;21009;-82
2021/11/19 09:14:21;;;;;;;11.13;8.17;;;;;;;8.23;93.72;99191.03;2108110;84;21002;-82
2021/11/19 09:17:21;;;;;;;7.10;5.83;;;;;;;8.27;93.62;99187.25;2108569;84;21351;-82
2021/11/19 09:20:22;;;;;;;6.27;5.67;;;;;;;8.30;93.64;99180.83;2108665;84;20963;-81
2021/11/19 09:23:25;;;;;;;8.53;6.80;;;;;;;8.32;93.47;99180.87;2108157;84;20955;-83
2021/11/19 09:26:26;;;;;;;11.17;6.83;;;;;;;8.30;93.77;99179.95;2108755;84;20939;-81
2021/11/19 09:29:27;;;;;;;10.83;7.70;;;;;;;8.31;93.77;99185.19;2108680;83;21006;-81
2021/11/19 09:36:07;;;;;;;8.40;6.70;;;;;;;8.40;93.62;99181.09;2107409;84;20985;-81
2021/11/19 09:39:17;;;;;;;7.60;6.53;;;;;;;8.41;94.03;99182.86;2108856;84;20986;-81
2021/11/19 09:42:17;;;;;;;9.33;6.80;;;;;;;8.43;93.63;99186.37;2107804;84;20959;-81
2021/11/19 09:45:18;;;;;;;8.87;7.60;;;;;;;8.42;93.77;99185.50;2109144;84;20959;-82
2021/11/19 09:48:21;;;;;;;12.03;7.70;;;;;;;8.45;93.79;99187.30;2081248;84;20943;-81
2021/11/19 09:51:21;;;;;;;8.20;6.50;;;;;;;8.46;93.58;99178.66;2109143;84;20947;-82
2021/11/19 09:54:21;;;;;;;12.77;7.40;;;;;;;8.50;93.43;99180.49;2109271;84;21395;-81
2021/11/19 09:57:22;;;;;;;10.17;6.80;;;;;;;8.52;93.33;99180.98;2109298;84;21018;-82
2021/11/19 10:00:23;;;;;;;12.97;7.97;;;;;;;8.55;93.57;99175.86;2111552;83;21024;-82
2021/11/19 10:03:23;;;;;;;24.03;12.97;;;;;;;8.57;93.46;99173.30;2133119;83;21008;-81
2021/11/19 10:06:24;;;;;;;17.90;12.30;;;;;;;8.61;93.53;99165.61;2132804;83;21019;-81
2021/11/19 10:09:24;;;;;;;12.13;8.83;;;;;;;8.67;93.38;99162.30;2131808;83;20997;-81
2021/11/19 10:12:25;;;;;;;14.20;9.50;;;;;;;8.68;93.56;99157.98;2132959;83;20980;-82
2021/11/19 10:15:26;;;;;;;13.27;7.70;;;;;;;8.70;93.37;99159.78;2132923;83;20965;-82
2021/11/19 10:18:27;;;;;;;13.80;8.10;;;;;;;8.68;93.50;99158.86;2132194;83;21012;-82
2021/11/19 10:21:27;;;;;;;10.03;7.77;;;;;;;8.65;93.67;99157.45;2132423;83;20948;-82
2021/11/19 10:24:28;;;;;;;12.00;8.07;;;;;;;8.64;93.81;99153.09;2132249;83;20947;-82
2021/11/19 10:27:29;;;;;;;14.40;9.07;;;;;;;8.66;94.00;99153.13;2131932;83;21015;-82
2021/11/19 10:30:30;;;;;;;12.27;8.47;;;;;;;8.70;93.97;99143.28;2132152;83;21321;-84
2021/11/19 10:33:30;;;;;;;12.23;8.27;;;;;;;8.78;93.50;99136.11;2133172;83;20982;-85
2021/11/19 10:36:31;;;;;;;11.07;7.93;;;;;;;8.84;93.95;99134.95;2133209;83;21028;-85
2021/11/19 10:39:32;;;;;;;12.47;8.63;;;;;;;8.89;93.25;99142.88;2132960;83;21048;-86
2021/11/19 10:42:33;;;;;;;9.13;7.17;;;;;;;8.89;93.50;99146.36;2132590;83;21008;-84
2021/11/19 10:45:33;;;;;;;11.00;8.00;;;;;;;8.87;93.38;99136.75;2133244;83;21045;-77
2021/11/19 10:48:34;;;;;;;12.13;8.00;;;;;;;8.87;93.55;99138.93;2133347;83;20991;-84
2021/11/19 10:51:36;;;;;;;10.60;7.33;;;;;;;8.91;93.40;99145.97;2092961;83;20960;-82
2021/11/19 10:54:37;;;;;;;10.53;7.43;;;;;;;8.91;93.87;99144.66;2133895;83;20972;-84
2021/11/19 10:57:37;;;;;;;8.20;6.80;;;;;;;8.94;93.42;99141.25;2133809;83;21055;-84
2021/11/19 11:00:41;;;;;;;10.37;7.70;;;;;;;8.93;93.63;99139.07;2133981;83;21083;-83
2021/11/19 11:03:43;;;;;;;9.50;7.33;;;;;;;8.95;93.70;99139.11;2133215;83;21044;-81
2021/11/19 11:06:44;;;;;;;9.03;7.00;;;;;;;8.98;93.50;99143.50;2133612;83;20980;-82
2021/11/19 11:09:44;;;;;;;7.67;6.87;;;;;;;8.96;93.40;99143.89;2132624;83;20941;-82
2021/11/19 11:12:45;;;;;;;11.93;9.20;;;;;;;8.93;93.70;99142.09;2132912;83;21355;-85
2021/11/19 11:15:46;;;;;;;9.60;7.87;;;;;;;8.92;93.72;99137.31;2133586;83;21011;-81
2021/11/19 11:18:46;;;;;;;11.87;9.70;;;;;;;8.92;93.82;99137.73;2133192;83;21031;-82
2021/11/19 11:21:47;;;;;;;14.70;11.37;;;;;;;8.90;94.21;99139.42;2133299;83;21044;-82
2021/11/19 11:24:48;;;;;;;16.00;11.20;;;;;;;8.89;93.92;99138.97;2133571;83;20986;-82
2021/11/19 11:27:48;;;;;;;14.63;11.47;;;;;;;8.88;94.14;99135.48;2133213;83;21048;-82
2021/11/19 11:30:49;;;;;;;12.83;9.13;;;;;;;8.89;93.98;99133.34;2133642;83;21450;-84
2021/11/19 11:33:49;;;;;;;15.77;11.00;;;;;;;8.91;94.03;99113.84;2134008;83;20976;-82
2021/11/19 11:36:50;;;;;;;12.30;9.23;;;;;;;8.92;93.92;99121.69;2133771;83;21004;-82
2021/11/19 11:39:52;;;;;;;12.53;9.33;;;;;;;8.97;93.84;99129.61;2132306;83;20957;-82
2021/11/19 11:42:52;;;;;;;16.80;9.60;;;;;;;8.96;94.53;99120.03;2132322;83;20953;-81
2021/11/19 11:45:53;;;;;;;22.07;12.10;;;;;;;8.97;94.12;99131.33;2133614;83;21004;-81
2021/11/19 11:48:53;;;;;;;22.50;13.03;;;;;;;8.98;94.00;99131.78;2133457;83;21008;-81
2021/11/19 11:51:54;;;;;;;15.30;11.17;;;;;;;8.99;93.99;99124.43;2132508;83;20964;-82
2021/11/19 11:54:55;;;;;;;16.17;11.10;;;;;;;8.99;94.11;99138.33;2133480;83;21012;-81
2021/11/19 11:57:56;;;;;;;13.10;10.57;;;;;;;9.02;94.02;99127.98;2133716;83;21392;-82
2021/11/19 12:00:56;;;;;;;12.43;9.93;;;;;;;9.02;93.98;99140.13;2133213;82;21096;-83
2021/11/19 12:03:57;;;;;;;11.70;10.00;;;;;;;9.03;93.73;99126.27;2132651;83;20965;-81
2021/11/19 12:06:57;;;;;;;14.70;12.60;;;;;;;9.06;93.92;99122.42;2132392;83;21414;-81
2021/11/19 12:09:58;;;;;;;15.73;11.77;;;;;;;9.07;93.81;99112.04;2131867;83;21008;-82
2021/11/19 12:12:58;;;;;;;14.67;10.93;;;;;;;9.06;93.94;99120.70;2133097;83;20992;-82
2021/11/19 12:15:59;;;;;;;12.70;9.93;;;;;;;9.07;93.87;99120.27;2132979;83;21007;-81
2021/11/19 12:18:59;;;;;;;13.40;9.80;;;;;;;9.07;93.80;99112.46;2133746;83;20999;-82
2021/11/19 12:22:01;;;;;;;10.90;9.40;;;;;;;9.10;93.66;99104.72;2132618;83;21051;-80
2021/11/19 12:25:01;;;;;;;9.70;8.67;;;;;;;9.12;93.61;99099.12;2132881;83;20967;-80
2021/11/19 12:28:02;;;;;;;9.00;7.70;;;;;;;9.12;93.49;99098.70;2133200;83;21020;-81
2021/11/19 12:31:02;;;;;;;9.50;7.87;;;;;;;9.14;93.41;99112.63;2133253;83;20969;-82
2021/11/19 12:34:03;;;;;;;10.33;8.83;;;;;;;9.14;93.40;99108.72;2132910;83;20932;-82
2021/11/19 12:37:03;;;;;;;9.33;7.40;;;;;;;9.15;93.32;99118.30;2133161;83;21428;-84
2021/11/19 12:40:04;;;;;;;9.90;8.07;;;;;;;9.15;93.33;99101.79;2133084;83;21006;-83
2021/11/19 12:43:04;;;;;;;11.60;8.63;;;;;;;9.17;93.22;99104.88;2133011;83;20969;-83
2021/11/19 12:46:05;;;;;;;14.17;10.00;;;;;;;9.16;93.31;99104.42;2133929;83;21384;-81
2021/11/19 12:49:05;;;;;;;15.83;10.00;;;;;;;9.18;93.34;99108.37;2133708;83;20988;-80
2021/11/19 12:52:06;;;;;;;12.10;9.67;;;;;;;9.17;93.33;99109.21;2132473;83;20968;-83
2021/11/19 12:55:06;;;;;;;9.87;8.80;;;;;;;9.18;93.36;99101.86;2133389;83;21010;-81
2021/11/19 12:58:07;;;;;;;8.87;7.70;;;;;;;9.18;93.47;99120.09;2134031;83;21011;-83
2021/11/19 13:01:07;;;;;;;10.40;9.30;;;;;;;9.19;93.32;99116.21;2133822;83;21027;-83
2021/11/19 13:04:08;;;;;;;9.83;7.67;;;;;;;9.17;93.58;99114.00;2132970;83;20952;-83
2021/11/19 13:07:11;;;;;;;9.93;7.67;;;;;;;9.18;93.58;99112.27;2132921;83;21356;-82
2021/11/19 13:10:11;;;;;;;12.77;8.90;;;;;;;9.19;93.96;99110.13;2132597;83;21000;-83
2021/11/19 13:13:13;;;;;;;11.90;8.53;;;;;;;9.16;94.38;99120.48;2132117;83;20937;-81
2021/11/19 13:16:14;;;;;;;11.77;8.60;;;;;;;9.13;94.37;99117.80;2132521;83;21107;-80
2021/11/19 13:19:14;;;;;;;13.23;9.57;;;;;;;9.10;94.96;99109.50;2132506;83;20964;-82
2021/11/19 13:22:15;;;;;;;12.17;9.40;;;;;;;9.09;95.28;99112.95;2133414;83;20973;-81
2021/11/19 13:25:15;;;;;;;14.77;11.40;;;;;;;9.09;95.50;99111.66;2133415;83;21033;-82
2021/11/19 13:28:16;;;;;;;16.20;10.00;;;;;;;9.08;95.36;99120.31;2132563;83;20954;-82
2021/11/19 13:31:16;;;;;;;19.67;13.67;;;;;;;9.08;95.34;99109.02;2132421;83;20980;-81
2021/11/19 13:34:17;;;;;;;12.13;9.37;;;;;;;9.06;95.07;99122.00;2132787;83;20996;-81
2021/11/19 13:37:17;;;;;;;11.20;8.30;;;;;;;9.08;95.22;99118.13;2132334;83;21000;-83
2021/11/19 13:40:18;;;;;;;12.67;9.80;;;;;;;9.06;95.31;99127.20;2132807;83;20996;-83
2021/11/19 13:43:20;;;;;;;13.63;9.63;;;;;;;9.07;95.19;99121.16;2133515;83;21401;-83
2021/11/19 13:46:20;;;;;;;10.80;9.30;;;;;;;9.09;94.75;99122.06;2133025;83;21008;-84
2021/11/19 13:49:21;;;;;;;11.47;9.67;;;;;;;9.08;95.22;99112.50;2132011;83;20976;-82
2021/11/19 13:52:21;;;;;;;11.80;9.27;;;;;;;9.08;95.09;99120.73;2091103;83;21402;-82
2021/11/19 13:55:22;;;;;;;10.67;8.37;;;;;;;9.08;95.05;99119.00;2133159;83;20985;-82
2021/11/19 13:58:22;;;;;;;14.13;10.27;;;;;;;9.12;95.01;99118.65;2133147;83;21020;-81
2021/11/19 14:01:23;;;;;;;13.00;9.97;;;;;;;9.10;95.06;99122.95;2133282;83;21031;-83
2021/11/19 14:04:23;;;;;;;15.20;11.77;;;;;;;9.10;95.06;99122.52;2133980;83;21008;-82
2021/11/19 14:07:24;;;;;;;15.47;13.13;;;;;;;9.10;95.13;99124.25;2134163;83;21000;-81
2021/11/19 14:10:25;;;;;;;14.93;10.67;;;;;;;9.11;95.14;99136.42;2133109;83;21377;-84
2021/11/19 14:13:25;;;;;;;12.90;10.73;;;;;;;9.09;95.19;99129.88;2133785;83;20974;-83